SGCO/CIO METAR and TAF weather

Enter ICAO airport designator
Station Type Date Time Source
SGCO METAR 2020/01/22 15:00 UTC NOAA

SGCO 221500Z 25005KT 9999 BKN034 29/24 Q1004


Station Type Date Time Source
SGCO Decoded METAR 2020/01/22 15:00 UTC NOAA

Concepcion, Paraguay (SGCO) 23-25S 057-18W 74M
Jan 22, 2020 - 10:00 AM EST / 2020.01.22 1500 UTC
Wind: from the WSW (250 degrees) at 6 MPH (5 KT):0
Visibility: greater than 7 mile(s):0
Sky conditions: mostly cloudy
Temperature: 84 F (29 C)
Dew Point: 75 F (24 C)
Relative Humidity: 74%
Pressure (altimeter): 29.65 in. Hg (1004 hPa)
ob: SGCO 221500Z 25005KT 9999 BKN034 29/24 Q1004
cycle: 15

Station Type Date Time Source
SGCO TAF 2020/02/19 12:00 UTC NOAA

TAF SGCO 190955Z 1912/2012 15007KT 9999 SCT030 TX35/1919Z TN24/2009Z
BECMG 1914/1917 05007KT 9999 BKN027 FEW040TCU PROB30 1920/1922 15007KT 8000 TS SHRA BKN027 FEW040CB
BECMG 1923/2002 12005KT 9999 SCT030
BECMG 2003/2006 VRB03KT 9999 BKN030
BECMG 2009/2012 12005KT 9999 TS BKN027 FEW040CB

Example: see airport list